57  °F
Temperature
14  °C
Temperature
14  °C
 Dewpoint
57  °F
  Dewpoint
100  %
 Humidity
  Temperature
6  mph
Wind Speed
5  kts
Wind Speed
10  km/h
Wind Speed
2.7  m/s
Wind Speed
50°
North East

Wind Speed
Light Rain
Showers
Pressure 29.52 (inHG) - 999.62 (mb)
Visibility 3.7 (mi) - 6.0 (km)

Sky Conditions
KPCW
Location Carl R Keller Field 5 mi (8.05 km)
Metar :KPCW 110035Z AUTO 05005KT 4SM RA FEW005 BKN010 OVC038 14/14 A2952 RMK AO2
Sat 10th April 20:35 pm

Nearest Airport
https://www.checkwx.com/weather/KPCW
  Metar Aviation API Data Provided by https://www.checkwx.com/ Original CSS/SVG/PHP scripts by weather34.com © 2015-2021